Prowers, Colorado
Current Conditions -  °F | °C
As of 4:53 AM on Monday 26 Jan 2015 (Local Time) from KLAA Reporting Station
Clear Clear  
Wind Chill: 27°   Ceiling: Unl
Heat Index: 34°   Visibility: 10mi
Dew Point: 29°   Wind: 8mph
Humidity: 82%   Direction: 270°W
Pressure: 30.18"   Gusts: NA
Location:  37.885°N, 102.667°W
Report Text: KLAA 261153Z AUTO 27007KT 10SM CLR 01/M02 A3018 RMK AO2 SLP216 T00111017 10028 21017 53001
Loading
Personal Weather Stations






























Interactive Weather Map New forecast layout! Learn more

10-Day Weather Forecast

Advertisements
Track Severe Weather on mobile